Latest Weather Observations for Kurnell

IDN60801

Issued at 8:41 pm EDT Sunday 21 December 2014 (issued every 30 minutes, with the page automatically refreshed every 10 minutes)

About weather observations | Map of weather stations | Latest weather observations for NSW | Other Formats
Station Details ID: 066043 Name: KURNELL AWS Lat: -34.00 Lon: 151.21 Height: 4.0 m
Data from the previous 72 hours. | See also: Recent months for locations in New South Wales
Date/Time
EDT
Temp
°C
App
Temp
°C
Dew
Point
Rel
Hum
%
Delta-T
°C
Wind Press
QNH
hPa
Press
MSL
hPa
Rain
since 9 am
mm
Dir
 
Spd
km/h
Gust
km/h
Spd
kts
Gust
kts
21/08:30pm - - - - - NE 35 44 19 24 - - -
21/08:00pm - - - - - NE 37 46 20 25 - - -
21/07:30pm - - - - - NE 37 46 20 25 - - -
21/07:00pm - - - - - NE 39 48 21 26 - - -
21/06:30pm - - - - - NE 37 50 20 27 - - -
21/06:00pm - - - - - NE 37 46 20 25 - - -
21/05:30pm - - - - - NE 35 44 19 24 - - -
21/05:00pm - - - - - NE 33 41 18 22 - - -
21/04:30pm - - - - - ENE 32 41 17 22 - - -
21/04:00pm - - - - - ENE 33 39 18 21 - - -
21/03:30pm - - - - - ENE 33 41 18 22 - - -
21/03:00pm - - - - - ENE 35 41 19 22 - - -
21/02:30pm - - - - - ENE 33 39 18 21 - - -
21/02:00pm - - - - - ENE 32 37 17 20 - - -
21/01:30pm - - - - - ENE 30 37 16 20 - - -
21/01:00pm - - - - - ENE 30 37 16 20 - - -
21/12:30pm - - - - - ENE 28 33 15 18 - - -
21/12:00pm - - - - - NE 24 33 13 18 - - -
21/11:30am - - - - - NE 26 33 14 18 - - -
21/11:00am - - - - - ENE 22 28 12 15 - - -
21/10:30am - - - - - NE 26 32 14 17 - - -
21/10:00am - - - - - NE 17 24 9 13 - - -
21/09:30am - - - - - CALM 0 0 0 0 - - -
21/09:00am - - - - - NW 4 6 2 3 - - -
21/08:30am - - - - - NW 7 9 4 5 - - -
21/08:00am - - - - - WNW 9 11 5 6 - - -
21/07:30am - - - - - W 6 9 3 5 - - -
21/07:00am - - - - - CALM 0 0 0 0 - - -
21/06:30am - - - - - CALM 0 0 0 0 - - -
21/06:00am - - - - - CALM 0 0 0 0 - - -
21/05:30am - - - - - SSW 6 7 3 4 - - -
21/05:00am - - - - - SSW 7 9 4 5 - - -
21/04:30am - - - - - SSW 6 7 3 4 - - -
21/04:00am - - - - - SSW 6 9 3 5 - - -
21/03:30am - - - - - SW 6 7 3 4 - - -
21/03:00am - - - - - SW 7 9 4 5 - - -
21/02:30am - - - - - SW 7 9 4 5 - - -
21/02:00am - - - - - CALM 0 6 0 3 - - -
21/01:30am - - - - - ENE 6 7 3 4 - - -
21/01:00am - - - - - ENE 6 7 3 4 - - -
21/12:30am - - - - - NE 13 15 7 8 - - -
21/12:00am - - - - - NE 13 15 7 8 - - -
 
Date/Time
EDT
Temp
°C
App
Temp
°C
Dew
Point
Rel
Hum
%
Delta-T
°C
Wind Press
QNH
hPa
Press
MSL
hPa
Rain
since 9 am
mm
Dir
 
Spd
km/h
Gust
km/h
Spd
kts
Gust
kts
20/11:30pm - - - - - NE 17 19 9 10 - - -
20/11:00pm - - - - - ENE 17 20 9 11 - - -
20/10:30pm - - - - - ENE 15 19 8 10 - - -
20/10:00pm - - - - - ENE 17 19 9 10 - - -
20/09:30pm - - - - - ENE 19 22 10 12 - - -
20/09:00pm - - - - - ENE 19 22 10 12 - - -
20/08:30pm - - - - - ENE 19 24 10 13 - - -
20/08:00pm - - - - - ENE 20 26 11 14 - - -
20/07:30pm - - - - - ENE 20 26 11 14 - - -
20/07:00pm - - - - - ENE 19 24 10 13 - - -
20/06:30pm - - - - - ENE 19 22 10 12 - - -
20/06:00pm - - - - - ENE 22 30 12 16 - - -
20/05:30pm - - - - - E 24 30 13 16 - - -
20/05:00pm - - - - - E 24 30 13 16 - - -
20/04:30pm - - - - - E 24 30 13 16 - - -
20/04:00pm - - - - - E 22 30 12 16 - - -
20/03:30pm - - - - - E 24 32 13 17 - - -
20/03:00pm - - - - - E 24 30 13 16 - - -
20/02:30pm - - - - - E 24 30 13 16 - - -
20/02:00pm - - - - - E 22 28 12 15 - - -
20/01:30pm - - - - - E 22 28 12 15 - - -
20/01:00pm - - - - - E 20 26 11 14 - - -
20/12:30pm - - - - - E 19 26 10 14 - - -
20/12:00pm - - - - - ENE 17 22 9 12 - - -
20/11:30am - - - - - ENE 17 24 9 13 - - -
20/11:00am - - - - - E 15 22 8 12 - - -
20/10:30am - - - - - E 13 20 7 11 - - -
20/10:00am - - - - - ESE 13 19 7 10 - - -
20/09:30am - - - - - ENE 11 17 6 9 - - -
20/09:00am - - - - - E 11 17 6 9 - - -
20/08:30am - - - - - ESE 9 13 5 7 - - -
20/08:00am - - - - - SE 7 9 4 5 - - -
20/07:30am - - - - - SE 6 11 3 6 - - -
20/07:00am - - - - - WSW 7 9 4 5 - - -
20/06:30am - - - - - SSE 2 6 1 3 - - -
20/06:00am - - - - - SSE 7 9 4 5 - - -
20/05:30am - - - - - SW 7 9 4 5 - - -
20/05:00am - - - - - SW 13 17 7 9 - - -
20/04:30am - - - - - SSE 9 13 5 7 - - -
20/04:00am - - - - - SSE 9 11 5 6 - - -
20/03:30am - - - - - SSE 13 15 7 8 - - -
20/03:00am - - - - - SSE 11 15 6 8 - - -
20/02:30am - - - - - SE 11 15 6 8 - - -
20/02:00am - - - - - SSE 13 20 7 11 - - -
20/01:30am - - - - - SSE 13 19 7 10 - - -
20/01:00am - - - - - SSE 15 19 8 10 - - -
20/12:30am - - - - - SSE 17 24 9 13 - - -
20/12:00am - - - - - SSE 17 24 9 13 - - -
 
Date/Time
EDT
Temp
°C
App
Temp
°C
Dew
Point
Rel
Hum
%
Delta-T
°C
Wind Press
QNH
hPa
Press
MSL
hPa
Rain
since 9 am
mm
Dir
 
Spd
km/h
Gust
km/h
Spd
kts
Gust
kts
19/11:30pm - - - - - SSE 11 17 6 9 - - -
19/11:00pm - - - - - SSE 20 28 11 15 - - -
19/10:30pm - - - - - SSE 19 26 10 14 - - -
19/10:00pm - - - - - SSE 20 28 11 15 - - -
19/09:30pm - - - - - SSE 22 30 12 16 - - -
19/09:00pm - - - - - SSE 19 30 10 16 - - -
19/08:30pm - - - - - SSE 20 30 11 16 - - -
19/08:00pm - - - - - SSE 20 32 11 17 - - -
19/07:30pm - - - - - SSE 22 30 12 16 - - -
19/07:00pm - - - - - SSE 22 30 12 16 - - -
19/06:30pm - - - - - SSE 24 32 13 17 - - -
19/06:00pm - - - - - SSE 24 33 13 18 - - -
19/05:30pm - - - - - SSE 26 35 14 19 - - -
19/05:00pm - - - - - SSE 28 39 15 21 - - -
19/04:30pm - - - - - SSE 28 37 15 20 - - -
19/04:00pm - - - - - SSE 28 39 15 21 - - -
19/03:30pm - - - - - SSE 28 37 15 20 - - -
19/03:00pm - - - - - SSE 28 39 15 21 - - -
19/02:30pm - - - - - SSE 28 39 15 21 - - -
19/02:00pm - - - - - S 30 39 16 21 - - -
19/01:30pm - - - - - S 28 41 15 22 - - -
19/01:00pm - - - - - SSE 28 41 15 22 - - -
19/12:30pm - - - - - SSE 30 41 16 22 - - -
19/12:00pm - - - - - SSE 30 39 16 21 - - -
19/11:30am - - - - - S 32 41 17 22 - - -
19/11:00am - - - - - S 30 39 16 21 - - -
19/10:30am - - - - - S 32 43 17 23 - - -
19/10:00am - - - - - S 30 44 16 24 - - -
19/09:57am - - - - - S 30 48 16 26 - - -
19/09:30am - - - - - S 35 48 19 26 - - -
19/09:00am - - - - - S 37 50 20 27 - - -
19/08:30am - - - - - S 35 46 19 25 - - -
19/08:00am - - - - - S 35 48 19 26 - - -
19/07:30am - - - - - S 35 48 19 26 - - -
19/07:00am - - - - - S 37 52 20 28 - - -
19/06:30am - - - - - S 33 50 18 27 - - -
19/06:00am - - - - - S 37 50 20 27 - - -
19/05:42am - - - - - SSW 37 56 20 30 - - -
19/05:30am - - - - - SSW 39 52 21 28 - - -
19/05:00am - - - - - SSW 41 52 22 28 - - -
19/04:30am - - - - - SSW 43 61 23 33 - - -
19/04:03am - - - - - SSW 43 63 23 34 - - -
19/04:00am - - - - - SSW 41 57 22 31 - - -
19/03:45am - - - - - WSW 26 69 14 37 - - -
19/03:30am - - - - - WSW 20 26 11 14 - - -
19/03:00am - - - - - W 24 28 13 15 - - -
19/02:30am - - - - - WNW 17 20 9 11 - - -
19/02:00am - - - - - WNW 15 15 8 8 - - -
19/01:30am - - - - - WNW 9 11 5 6 - - -
19/01:00am - - - - - WNW 9 11 5 6 - - -
19/12:30am - - - - - NW 6 7 3 4 - - -
19/12:00am - - - - - CALM 0 0 0 0 - - -
 
Date/Time
EDT
Temp
°C
App
Temp
°C
Dew
Point
Rel
Hum
%
Delta-T
°C
Wind Press
QNH
hPa
Press
MSL
hPa
Rain
since 9 am
mm
Dir
 
Spd
km/h
Gust
km/h
Spd
kts
Gust
kts
18/11:30pm - - - - - N 2 7 1 4 - - -
18/11:00pm - - - - - N 4 7 2 4 - - -
18/10:30pm - - - - - ENE 6 7 3 4 - - -
18/10:00pm - - - - - NE 7 9 4 5 - - -
18/09:30pm - - - - - NE 13 17 7 9 - - -
18/09:00pm - - - - - NE 19 22 10 12 - - -

Other Formats:

Comma delimited format used in spreadsheet applications
http://www.bom.gov.au/fwo/IDN60801/IDN60801.95756.axf

JavaScript Object Notation format (JSON) in row-major order
http://www.bom.gov.au/fwo/IDN60801/IDN60801.95756.json